PWSweather.com
Personal Weather Stations
Station Observations
KCAFRAZI5
West End Drive Area, Frazier Park, CA 93225

West End Drive AreaFrazier Park, CA 93225

Lat: 34.82109, Lon: -118.96053

Elevation: 4940

Station Type: Davis Vantage Pro 2

http://www.fpweather.com

High Low Average
Temperature 82.0°F27.8°C 47.6°F8.7°C 69.2°F20.7°C
Dew Point 35.8°F2.1°C 13.7°F-10.2°C 28.6°F-1.9°C
Winds 17.0 mph 27.4 kmh Calm Calm 4.0 mph S6.4 kmh S
Wind Gusts 18.0 mph29.0 kmh -- 7.0 mph11.3 kmh
Humidity 41% 8% 24%
Pressure 29.62 in1003.0 mb 29.53 in1000.0 mb -
Precipitation 0.00 in0.0 mm - -
Hour Temp Dew Point Humidity Winds Wind Gusts Pressure Precip Precip Rate Daily Precip Total
09:15 AM 68.4°F20.2°C 31.2°F-0.4°C 25% 4.0 mph N6.4 kmh N 5.0 mph8.0 kmh 29.62 in1003.0 mb 0.00 in0.0 mm 0.00 in0.0 mm 0.00 in0.0 mm
09:30 AM 67.4°F19.7°C 30.4°F-0.9°C 25% 6.0 mph N9.7 kmh N 7.0 mph11.3 kmh 29.62 in1003.0 mb 0.00 in0.0 mm 0.00 in0.0 mm 0.00 in0.0 mm
09:45 AM 67.5°F19.7°C 30.5°F-0.8°C 25% 4.0 mph NW6.4 kmh NW 6.0 mph9.7 kmh 29.62 in1003.0 mb 0.00 in0.0 mm 0.00 in0.0 mm 0.00 in0.0 mm
10:00 AM 69.0°F20.6°C 31.8°F-0.1°C 25% 7.0 mph N11.3 kmh N 9.0 mph14.5 kmh 29.62 in1003.0 mb 0.00 in0.0 mm 0.00 in0.0 mm 0.00 in0.0 mm
10:15 AM 69.9°F21.1°C 30.5°F-0.8°C 23% 2.0 mph NNE3.2 kmh NNE 9.0 mph14.5 kmh 29.60 in1002.4 mb 0.00 in0.0 mm 0.00 in0.0 mm 0.00 in0.0 mm
10:30 AM 71.4°F21.9°C 30.6°F-0.8°C 22% 2.0 mph N3.2 kmh N 5.0 mph8.0 kmh 29.60 in1002.4 mb 0.00 in0.0 mm 0.00 in0.0 mm 0.00 in0.0 mm
10:45 AM 73.1°F22.8°C 27.1°F-2.7°C 18% 2.0 mph NNW3.2 kmh NNW 6.0 mph9.7 kmh 29.60 in1002.4 mb 0.00 in0.0 mm 0.00 in0.0 mm 0.00 in0.0 mm
11:00 AM 77.5°F25.3°C 16.7°F-8.5°C 10% 2.0 mph E3.2 kmh E 5.0 mph8.0 kmh 29.59 in1002.0 mb 0.00 in0.0 mm 0.00 in0.0 mm 0.00 in0.0 mm
11:15 AM 79.2°F26.2°C 15.6°F-9.1°C 9% 7.0 mph S11.3 kmh S 13.0 mph20.9 kmh 29.58 in1001.7 mb 0.00 in0.0 mm 0.00 in0.0 mm 0.00 in0.0 mm
11:30 AM 80.3°F26.8°C 13.7°F-10.2°C 8% 7.0 mph SSE11.3 kmh SSE 7.0 mph11.3 kmh 29.58 in1001.7 mb 0.00 in0.0 mm 0.00 in0.0 mm 0.00 in0.0 mm
11:45 AM 79.7°F26.5°C 18.4°F-7.6°C 10% 7.0 mph S11.3 kmh S 12.0 mph19.3 kmh 29.58 in1001.7 mb 0.00 in0.0 mm 0.00 in0.0 mm 0.00 in0.0 mm
12:00 PM 79.5°F26.4°C 15.8°F-9.0°C 9% 3.0 mph NNE4.8 kmh NNE 7.0 mph11.3 kmh 29.58 in1001.7 mb 0.00 in0.0 mm 0.00 in0.0 mm 0.00 in0.0 mm
12:15 PM 80.1°F26.7°C 18.7°F-7.4°C 10% 5.0 mph SE8.0 kmh SE 12.0 mph19.3 kmh 29.58 in1001.7 mb 0.00 in0.0 mm 0.00 in0.0 mm 0.00 in0.0 mm
12:30 PM 80.8°F27.1°C 16.8°F-8.4°C 9% 1.0 mph SE1.6 kmh SE 11.0 mph17.7 kmh 29.58 in1001.7 mb 0.00 in0.0 mm 0.00 in0.0 mm 0.00 in0.0 mm
12:45 PM 80.7°F27.1°C 16.7°F-8.5°C 9% 12.0 mph S19.3 kmh S 18.0 mph29.0 kmh 29.58 in1001.7 mb 0.00 in0.0 mm 0.00 in0.0 mm 0.00 in0.0 mm
01:00 PM 80.8°F27.1°C 16.8°F-8.4°C 9% 4.0 mph SSE6.4 kmh SSE 11.0 mph17.7 kmh 29.59 in1002.0 mb 0.00 in0.0 mm 0.00 in0.0 mm 0.00 in0.0 mm
01:15 PM 80.5°F26.9°C 21.2°F-6.0°C 11% 9.0 mph S14.5 kmh S 11.0 mph17.7 kmh 29.58 in1001.7 mb 0.00 in0.0 mm 0.00 in0.0 mm 0.00 in0.0 mm
01:30 PM 80.8°F27.1°C 19.2°F-7.1°C 10% 2.0 mph E3.2 kmh E 7.0 mph11.3 kmh 29.58 in1001.7 mb 0.00 in0.0 mm 0.00 in0.0 mm 0.00 in0.0 mm
01:45 PM 82.0°F27.8°C 15.0°F-9.4°C 8% 7.0 mph S11.3 kmh S 11.0 mph17.7 kmh 29.57 in1001.4 mb 0.00 in0.0 mm 0.00 in0.0 mm 0.00 in0.0 mm
02:00 PM 79.4°F26.3°C 29.3°F-1.5°C 16% 2.0 mph NE3.2 kmh NE 6.0 mph9.7 kmh 29.58 in1001.7 mb 0.00 in0.0 mm 0.00 in0.0 mm 0.00 in0.0 mm
02:15 PM 78.2°F25.7°C 28.4°F-2.0°C 16% 4.0 mph NNE6.4 kmh NNE 11.0 mph17.7 kmh 29.58 in1001.7 mb 0.00 in0.0 mm 0.00 in0.0 mm 0.00 in0.0 mm
02:30 PM 78.6°F25.9°C 30.2°F-1.0°C 17% 9.0 mph N14.5 kmh N 9.0 mph14.5 kmh 29.59 in1002.0 mb 0.00 in0.0 mm 0.00 in0.0 mm 0.00 in0.0 mm
02:45 PM 78.8°F26.0°C 28.9°F-1.7°C 16% 4.0 mph N6.4 kmh N 12.0 mph19.3 kmh 29.59 in1002.0 mb 0.00 in0.0 mm 0.00 in0.0 mm 0.00 in0.0 mm
03:00 PM 78.8°F26.0°C 30.4°F-0.9°C 17% 3.0 mph N4.8 kmh N 7.0 mph11.3 kmh 29.58 in1001.7 mb 0.00 in0.0 mm 0.00 in0.0 mm 0.00 in0.0 mm
03:15 PM 78.1°F25.6°C 33.8°F1.0°C 20% 6.0 mph NW9.7 kmh NW 9.0 mph14.5 kmh 29.58 in1001.7 mb 0.00 in0.0 mm 0.00 in0.0 mm 0.00 in0.0 mm
03:30 PM 76.4°F24.7°C 32.4°F0.2°C 20% 5.0 mph N8.0 kmh N 11.0 mph17.7 kmh 29.60 in1002.4 mb 0.00 in0.0 mm 0.00 in0.0 mm 0.00 in0.0 mm
03:45 PM 77.7°F25.4°C 32.2°F0.1°C 19% 3.0 mph SW4.8 kmh SW 11.0 mph17.7 kmh 29.59 in1002.0 mb 0.00 in0.0 mm 0.00 in0.0 mm 0.00 in0.0 mm
04:00 PM 76.1°F24.5°C 32.2°F0.1°C 20% 17.0 mph N27.4 kmh N 17.0 mph27.4 kmh 29.58 in1001.7 mb 0.00 in0.0 mm 0.00 in0.0 mm 0.00 in0.0 mm
04:15 PM 75.2°F24.0°C 32.6°F0.3°C 21% 3.0 mph WNW4.8 kmh WNW 6.0 mph9.7 kmh 29.59 in1002.0 mb 0.00 in0.0 mm 0.00 in0.0 mm 0.00 in0.0 mm
04:30 PM 74.9°F23.8°C 33.5°F0.8°C 22% 5.0 mph NE8.0 kmh NE 11.0 mph17.7 kmh 29.61 in1002.7 mb 0.00 in0.0 mm 0.00 in0.0 mm 0.00 in0.0 mm
04:45 PM 75.4°F24.1°C 32.8°F0.4°C 21% 3.0 mph N4.8 kmh N 13.0 mph20.9 kmh 29.60 in1002.4 mb 0.00 in0.0 mm 0.00 in0.0 mm 0.00 in0.0 mm
05:00 PM 74.9°F23.8°C 33.5°F0.8°C 22% 9.0 mph NW14.5 kmh NW 12.0 mph19.3 kmh 29.60 in1002.4 mb 0.00 in0.0 mm 0.00 in0.0 mm 0.00 in0.0 mm
05:15 PM 73.6°F23.1°C 32.5°F0.3°C 22% 4.0 mph N6.4 kmh N 7.0 mph11.3 kmh 29.60 in1002.4 mb 0.00 in0.0 mm 0.00 in0.0 mm 0.00 in0.0 mm
05:30 PM 73.5°F23.1°C 33.5°F0.8°C 23% 3.0 mph N4.8 kmh N 5.0 mph8.0 kmh 29.61 in1002.7 mb 0.00 in0.0 mm 0.00 in0.0 mm 0.00 in0.0 mm
05:45 PM 72.3°F22.4°C 33.5°F0.8°C 24% 2.0 mph NE3.2 kmh NE 5.0 mph8.0 kmh 29.61 in1002.7 mb 0.00 in0.0 mm 0.00 in0.0 mm 0.00 in0.0 mm
06:00 PM 72.6°F22.6°C 33.8°F1.0°C 24% 2.0 mph NNE3.2 kmh NNE 6.0 mph9.7 kmh 29.62 in1003.0 mb 0.00 in0.0 mm 0.00 in0.0 mm 0.00 in0.0 mm
06:15 PM 71.7°F22.1°C 33.0°F0.6°C 24% 4.0 mph NNE6.4 kmh NNE 6.0 mph9.7 kmh 29.62 in1003.0 mb 0.00 in0.0 mm 0.00 in0.0 mm 0.00 in0.0 mm
06:30 PM 71.4°F21.9°C 32.8°F0.4°C 24% 5.0 mph NNE8.0 kmh NNE 6.0 mph9.7 kmh 29.58 in1001.7 mb 0.00 in0.0 mm 0.00 in0.0 mm 0.00 in0.0 mm
06:45 PM 71.1°F21.7°C 33.5°F0.8°C 25% 4.0 mph N6.4 kmh N 6.0 mph9.7 kmh 29.59 in1002.0 mb 0.00 in0.0 mm 0.00 in0.0 mm 0.00 in0.0 mm
07:00 PM 70.4°F21.3°C 32.9°F0.5°C 25% 5.0 mph NNE8.0 kmh NNE 5.0 mph8.0 kmh 29.58 in1001.7 mb 0.00 in0.0 mm 0.00 in0.0 mm 0.00 in0.0 mm
07:15 PM 69.2°F20.7°C 33.8°F1.0°C 27% 4.0 mph NW6.4 kmh NW 4.0 mph6.4 kmh 29.58 in1001.7 mb 0.00 in0.0 mm 0.00 in0.0 mm 0.00 in0.0 mm
07:30 PM 68.0°F20.0°C 33.7°F0.9°C 28% 3.0 mph NNW4.8 kmh NNW 4.0 mph6.4 kmh 29.55 in1000.7 mb 0.00 in0.0 mm 0.00 in0.0 mm 0.00 in0.0 mm
07:45 PM 66.9°F19.4°C 33.6°F0.9°C 29% Calm Calm 2.0 mph3.2 kmh 29.55 in1000.7 mb 0.00 in0.0 mm 0.00 in0.0 mm 0.00 in0.0 mm
08:00 PM 65.9°F18.8°C 34.4°F1.3°C 31% 1.0 mph N1.6 kmh N 3.0 mph4.8 kmh 29.56 in1001.0 mb 0.00 in0.0 mm 0.00 in0.0 mm 0.00 in0.0 mm
08:15 PM 64.8°F18.2°C 35.8°F2.1°C 34% Calm Calm 2.0 mph3.2 kmh 29.56 in1001.0 mb 0.00 in0.0 mm 0.00 in0.0 mm 0.00 in0.0 mm
08:30 PM 63.8°F17.7°C 35.7°F2.1°C 35% 1.0 mph N1.6 kmh N 1.0 mph1.6 kmh 29.54 in1000.3 mb 0.00 in0.0 mm 0.00 in0.0 mm 0.00 in0.0 mm
08:45 PM 62.3°F16.8°C 35.0°F1.7°C 36% Calm Calm 1.0 mph1.6 kmh 29.55 in1000.7 mb 0.00 in0.0 mm 0.00 in0.0 mm 0.00 in0.0 mm
09:00 PM 61.4°F16.3°C 34.9°F1.6°C 37% Calm Calm -- 29.56 in1001.0 mb 0.00 in0.0 mm 0.00 in0.0 mm 0.00 in0.0 mm
09:15 PM 59.8°F15.4°C 33.5°F0.8°C 37% 1.0 mph W1.6 kmh W 3.0 mph4.8 kmh 29.57 in1001.4 mb 0.00 in0.0 mm 0.00 in0.0 mm 0.00 in0.0 mm
09:30 PM 58.3°F14.6°C 32.2°F0.1°C 37% Calm Calm 1.0 mph1.6 kmh 29.57 in1001.4 mb 0.00 in0.0 mm 0.00 in0.0 mm 0.00 in0.0 mm
09:45 PM 57.2°F14.0°C 31.8°F-0.1°C 38% Calm Calm -- 29.58 in1001.7 mb 0.00 in0.0 mm 0.00 in0.0 mm 0.00 in0.0 mm
10:00 PM 57.2°F14.0°C 32.5°F0.3°C 39% Calm Calm 3.0 mph4.8 kmh 29.58 in1001.7 mb 0.00 in0.0 mm 0.00 in0.0 mm 0.00 in0.0 mm
10:15 PM 56.8°F13.8°C 31.5°F-0.3°C 38% 4.0 mph SSE6.4 kmh SSE 5.0 mph8.0 kmh 29.58 in1001.7 mb 0.00 in0.0 mm 0.00 in0.0 mm 0.00 in0.0 mm
10:30 PM 55.8°F13.2°C 29.9°F-1.2°C 37% 4.0 mph S6.4 kmh S 5.0 mph8.0 kmh 29.54 in1000.3 mb 0.00 in0.0 mm 0.00 in0.0 mm 0.00 in0.0 mm
10:45 PM 55.0°F12.8°C 28.6°F-1.9°C 36% 6.0 mph SSE9.7 kmh SSE 7.0 mph11.3 kmh 29.54 in1000.3 mb 0.00 in0.0 mm 0.00 in0.0 mm 0.00 in0.0 mm
11:00 PM 54.7°F12.6°C 27.6°F-2.4°C 35% 9.0 mph SSE14.5 kmh SSE 10.0 mph16.1 kmh 29.55 in1000.7 mb 0.00 in0.0 mm 0.00 in0.0 mm 0.00 in0.0 mm
11:15 PM 52.4°F11.3°C 26.3°F-3.2°C 36% 4.0 mph S6.4 kmh S 7.0 mph11.3 kmh 29.54 in1000.3 mb 0.00 in0.0 mm 0.00 in0.0 mm 0.00 in0.0 mm
11:30 PM 52.7°F11.5°C 27.2°F-2.7°C 37% 5.0 mph S8.0 kmh S 5.0 mph8.0 kmh 29.54 in1000.3 mb 0.00 in0.0 mm 0.00 in0.0 mm 0.00 in0.0 mm
11:45 PM 51.0°F10.6°C 26.9°F-2.8°C 39% 5.0 mph S8.0 kmh S 6.0 mph9.7 kmh 29.54 in1000.3 mb 0.00 in0.0 mm 0.00 in0.0 mm 0.00 in0.0 mm